Time;durP1;ratioP1;P1;durP2;ratioP2;P2;SDS_P1;SDS_P2;PMS_P1;PMS_P2;Temp;Humidity;BMP_temperature;BMP_pressure;BME280_temperature;BME280_humidity;BME280_pressure;Samples;Min_cycle;Max_cycle;Signal;HPM_P1;HPM_P2
2022/01/21 00:01:53;;;;;;;1999.90;999.90;;;;;;;-5.89;55.58;102154.63;5027748;22;97480;-74
2022/01/21 00:04:21;;;;;;;1999.90;999.90;;;;;;;-5.92;54.58;102150.94;4979331;28;97468;-72
2022/01/21 00:06:48;;;;;;;1999.90;999.90;;;;;;;-5.90;54.84;102160.56;4978351;28;99386;-73
2022/01/21 00:09:16;;;;;;;1999.90;999.90;;;;;;;-5.89;55.35;102154.63;4978983;28;99287;-73
2022/01/21 00:11:45;;;;;;;1999.90;999.90;;;;;;;-5.90;55.02;102161.47;4981598;28;97361;-73
2022/01/21 00:14:13;;;;;;;1999.90;999.90;;;;;;;-5.87;55.14;102166.06;4982327;28;96848;-72
2022/01/21 00:16:42;;;;;;;1999.90;999.90;;;;;;;-5.86;55.29;102170.47;4980289;28;98037;-73
2022/01/21 00:19:12;;;;;;;1999.90;999.90;;;;;;;-5.89;55.05;102170.16;4980088;28;98718;-72
2022/01/21 00:30:17;;;;;;;1999.90;999.90;;;;;;;-6.00;54.61;102180.31;4982238;28;96869;-73
2022/01/21 00:32:48;;;;;;;1999.90;999.90;;;;;;;-6.02;55.12;102187.00;4981757;28;96815;-72
2022/01/21 00:35:17;;;;;;;1999.90;999.90;;;;;;;-6.01;54.70;102186.22;4981114;28;96795;-72
2022/01/21 00:37:46;;;;;;;1999.90;999.90;;;;;;;-6.02;54.92;102183.47;4981772;28;98915;-72
2022/01/21 00:40:17;;;;;;;1999.90;999.90;;;;;;;-6.07;54.63;102182.06;4981313;28;97851;-72
2022/01/21 00:42:53;;;;;;;1999.90;999.90;;;;;;;-6.12;54.63;102178.94;4982507;28;97295;-73
2022/01/21 00:45:21;;;;;;;1999.90;999.90;;;;;;;-6.09;55.17;102174.13;4957139;28;97180;-73
2022/01/21 00:47:50;;;;;;;1999.90;999.90;;;;;;;-6.06;55.25;102186.47;4977385;28;99682;-73
2022/01/21 00:50:18;;;;;;;1999.90;999.90;;;;;;;-6.07;55.17;102193.31;4980915;28;99241;-73
2022/01/21 00:52:46;;;;;;;1999.90;999.90;;;;;;;-6.08;55.06;102196.66;4980887;28;96873;-73
2022/01/21 00:55:13;;;;;;;1999.90;999.90;;;;;;;-6.07;55.44;102200.19;4977099;28;97051;-72
2022/01/21 00:57:42;;;;;;;1999.90;999.90;;;;;;;-6.10;54.22;102207.59;4960948;28;99290;-74
2022/01/21 01:00:11;;;;;;;1999.90;999.90;;;;;;;-6.12;54.63;102210.03;4974039;28;98693;-73
2022/01/21 01:02:40;;;;;;;1999.90;999.90;;;;;;;-6.08;55.18;102212.22;4952197;28;98690;-73
2022/01/21 01:05:11;;;;;;;1999.90;999.90;;;;;;;-6.07;54.83;102219.22;4957286;28;98019;-73
2022/01/21 01:07:39;;;;;;;1999.90;999.90;;;;;;;-6.03;55.27;102213.63;4971847;28;98845;-71
2022/01/21 01:10:12;;;;;;;1999.90;999.90;;;;;;;-6.10;54.73;102205.94;4961067;28;99775;-71
2022/01/21 01:12:53;;;;;;;1999.90;999.90;;;;;;;-6.10;55.49;102213.72;4977608;28;97163;-71
2022/01/21 01:20:55;;;;;;;1999.90;999.90;;;;;;;-6.10;55.13;102208.53;4979345;28;98934;-71
2022/01/21 01:23:27;;;;;;;1999.90;999.90;;;;;;;-6.07;55.47;102211.44;4980507;28;97478;-71
2022/01/21 01:28:41;;;;;;;1999.90;999.90;;;;;;;-6.10;54.51;102208.53;4978672;28;98246;-71
2022/01/21 01:31:08;;;;;;;1999.90;999.90;;;;;;;-6.11;55.22;102205.78;4973390;28;98757;-72
2022/01/21 01:33:39;;;;;;;1999.90;999.90;;;;;;;-6.12;55.32;102210.03;4992515;28;98249;-72
2022/01/21 01:36:09;;;;;;;1999.90;999.90;;;;;;;-6.13;55.21;102210.81;4977540;28;99174;-72
2022/01/21 01:39:00;;;;;;;1999.90;999.90;;;;;;;-6.15;55.09;102199.34;4975324;28;98478;-71
2022/01/21 01:41:34;;;;;;;1999.90;999.90;;;;;;;-6.16;55.24;102201.78;4975680;28;99289;-71
2022/01/21 01:49:36;;;;;;;1999.90;999.90;;;;;;;-6.24;54.72;102208.69;4976290;28;99730;-73
2022/01/21 01:52:07;;;;;;;1999.90;999.90;;;;;;;-6.24;55.45;102207.78;4974579;28;98606;-71
2022/01/21 01:54:37;;;;;;;1999.90;999.90;;;;;;;-6.24;55.11;102203.53;4962048;28;96948;-73
2022/01/21 01:57:06;;;;;;;1999.90;999.90;;;;;;;-6.23;55.77;102200.16;4974976;28;97873;-72
2022/01/21 01:59:34;;;;;;;1999.90;999.90;;;;;;;-6.26;54.81;102204.09;4956945;28;100209;-74
2022/01/21 02:02:04;;;;;;;1999.90;999.90;;;;;;;-6.30;55.70;102202.84;4959136;28;100360;-72
2022/01/21 02:04:32;;;;;;;1999.90;999.90;;;;;;;-6.25;55.22;102203.38;4976623;28;96860;-72
2022/01/21 02:07:00;;;;;;;1999.90;999.90;;;;;;;-6.23;55.78;102194.97;4960073;28;97623;-71
2022/01/21 02:09:29;;;;;;;1999.90;999.90;;;;;;;-6.23;55.16;102189.81;4975699;28;99153;-70
2022/01/21 02:11:57;;;;;;;1999.90;999.90;;;;;;;-6.25;55.09;102186.13;4980403;28;98159;-72
2022/01/21 02:14:29;;;;;;;1999.90;999.90;;;;;;;-6.24;55.78;102182.81;4981003;28;98964;-72
2022/01/21 02:17:14;;;;;;;1999.90;999.90;;;;;;;-6.24;55.70;102187.97;4982856;28;98081;-72
2022/01/21 02:22:33;;;;;;;1999.90;999.90;;;;;;;-6.28;56.16;102193.56;4962184;28;98074;-72
2022/01/21 02:25:15;;;;;;;1999.90;999.90;;;;;;;-6.25;55.21;102195.59;4962698;28;98151;-71
2022/01/21 02:27:45;;;;;;;1999.90;999.90;;;;;;;-6.28;55.90;102197.81;4966362;28;98412;-72
2022/01/21 02:30:18;;;;;;;1999.90;999.90;;;;;;;-6.26;55.26;102210.19;4989275;28;97695;-73
2022/01/21 02:32:51;;;;;;;1999.90;999.90;;;;;;;-6.25;56.17;102222.38;4963414;28;99351;-72
2022/01/21 02:35:20;;;;;;;1999.90;999.90;;;;;;;-6.23;55.48;102220.88;4977292;28;98118;-72
2022/01/21 02:37:50;;;;;;;1999.90;999.90;;;;;;;-6.22;55.30;102212.38;4975480;28;96934;-72
2022/01/21 02:40:18;;;;;;;1999.90;999.90;;;;;;;-6.22;55.24;102220.16;4971923;28;97923;-72
2022/01/21 02:42:46;;;;;;;1999.90;999.90;;;;;;;-6.25;55.31;102219.78;4951197;28;99700;-72
2022/01/21 02:45:15;;;;;;;1999.90;999.90;;;;;;;-6.24;55.59;102208.69;4981449;28;97577;-72
2022/01/21 02:47:44;;;;;;;1999.90;999.90;;;;;;;-6.25;55.46;102206.84;4980065;28;98344;-72
2022/01/21 02:50:13;;;;;;;1999.90;999.90;;;;;;;-6.25;55.63;102204.25;4976193;28;99290;-72
2022/01/21 02:52:53;;;;;;;1999.90;999.90;;;;;;;-6.24;55.93;102206.09;4954562;28;98412;-73
2022/01/21 02:55:23;;;;;;;1999.90;999.90;;;;;;;-6.24;55.90;102202.59;4979415;28;96926;-72
2022/01/21 02:57:52;;;;;;;1999.90;999.90;;;;;;;-6.26;55.08;102204.09;4961744;28;97396;-72
2022/01/21 03:00:20;;;;;;;1999.90;999.90;;;;;;;-6.24;55.66;102205.19;4974870;28;98891;-73
2022/01/21 03:02:49;;;;;;;1999.90;999.90;;;;;;;-6.23;55.63;102209.63;4960128;28;98411;-72
2022/01/21 03:05:20;;;;;;;1999.90;999.90;;;;;;;-6.22;55.95;102217.56;4976054;28;97926;-73
2022/01/21 03:07:50;;;;;;;1999.90;999.90;;;;;;;-6.23;56.03;102209.63;4961070;28;96988;-72
2022/01/21 03:10:19;;;;;;;1999.90;999.90;;;;;;;-6.24;55.68;102212.94;4978066;28;98733;-73
2022/01/21 03:12:49;;;;;;;1999.90;999.90;;;;;;;-6.24;55.50;102208.69;4978809;28;97948;-72
2022/01/21 03:15:17;;;;;;;1999.90;999.90;;;;;;;-6.28;55.56;102203.94;4962910;28;97961;-73
2022/01/21 03:17:44;;;;;;;1999.90;999.90;;;;;;;-6.31;55.77;102205.25;4979001;28;97298;-72
2022/01/21 03:20:13;;;;;;;1999.90;999.90;;;;;;;-6.29;55.73;102203.75;4971807;28;98931;-72
2022/01/21 03:22:41;;;;;;;1999.90;999.90;;;;;;;-6.32;55.37;102204.34;4978248;28;98211;-73
2022/01/21 03:25:10;;;;;;;1999.90;999.90;;;;;;;-6.32;55.41;102193.97;4980432;28;96829;-72
2022/01/21 03:27:38;;;;;;;1999.90;999.90;;;;;;;-6.34;55.67;102195.47;4978088;28;96981;-72
2022/01/21 03:30:10;;;;;;;1999.90;999.90;;;;;;;-6.34;55.42;102195.47;4978200;28;99916;-72
2022/01/21 03:32:43;;;;;;;1999.90;999.90;;;;;;;-6.45;55.79;102211.50;4979530;28;97748;-73
2022/01/21 03:35:12;;;;;;;1999.90;999.90;;;;;;;-6.42;56.11;102201.50;4964000;28;97115;-72
2022/01/21 03:37:40;;;;;;;1999.90;999.90;;;;;;;-6.40;56.04;102205.19;4976353;28;98390;-72
2022/01/21 03:40:09;;;;;;;1999.90;999.90;;;;;;;-6.39;55.86;102209.59;4961256;28;99017;-72
2022/01/21 03:42:38;;;;;;;1999.90;999.90;;;;;;;-6.41;55.62;102218.84;4959005;28;99845;-72
2022/01/21 03:45:11;;;;;;;1999.90;999.90;;;;;;;-6.40;55.90;102210.34;4962506;28;97373;-71
2022/01/21 03:47:39;;;;;;;1999.90;999.90;;;;;;;-6.38;56.31;102203.69;4977720;28;97313;-71
2022/01/21 03:50:21;;;;;;;1999.90;999.90;;;;;;;-6.41;55.79;102198.13;4978229;28;98230;-71
2022/01/21 03:52:49;;;;;;;1999.90;999.90;;;;;;;-6.39;56.06;102201.81;4980430;28;100904;-71
2022/01/21 03:55:17;;;;;;;1999.90;999.90;;;;;;;-6.35;56.58;102198.84;4975153;28;96947;-71
2022/01/21 03:57:45;;;;;;;1999.90;999.90;;;;;;;-6.37;56.13;102210.69;4979438;28;97459;-71
2022/01/21 04:00:17;;;;;;;1999.90;999.90;;;;;;;-6.33;56.31;102218.03;4978003;28;99049;-71
2022/01/21 04:02:48;;;;;;;1999.90;999.90;;;;;;;-6.40;56.32;102205.19;4960718;28;99185;-71
2022/01/21 04:05:19;;;;;;;1999.90;999.90;;;;;;;-6.36;56.29;102215.09;4976584;28;99115;-72
2022/01/21 04:07:48;;;;;;;1999.90;999.90;;;;;;;-6.36;56.68;102204.75;4959255;28;98741;-72
2022/01/21 04:10:16;;;;;;;1999.90;999.90;;;;;;;-6.31;56.45;102220.81;4961546;28;102138;-71
2022/01/21 04:12:44;;;;;;;1999.90;999.90;;;;;;;-6.33;56.46;102218.03;4978894;28;98710;-71
2022/01/21 04:15:15;;;;;;;1999.90;999.90;;;;;;;-6.29;56.92;102212.47;4970182;28;98252;-72
2022/01/21 04:17:43;;;;;;;1999.90;999.90;;;;;;;-6.29;57.13;102199.50;4962973;28;98369;-71
2022/01/21 04:20:13;;;;;;;1999.90;999.90;;;;;;;-6.26;56.63;102197.25;4978130;28;99245;-72
2022/01/21 04:22:41;;;;;;;1999.90;999.90;;;;;;;-6.23;56.88;102201.88;4961159;28;98080;-72
2022/01/21 04:25:09;;;;;;;1999.90;999.90;;;;;;;-6.19;57.29;102191.06;4977761;28;96919;-71
2022/01/21 04:27:38;;;;;;;1999.90;999.90;;;;;;;-6.17;57.18;102200.84;4978007;28;97624;-71
2022/01/21 04:30:08;;;;;;;1999.90;999.90;;;;;;;-5.83;56.21;102183.78;4960880;28;99523;-72
2022/01/21 04:32:38;;;;;;;1999.90;999.90;;;;;;;-5.95;56.58;102185.97;4959675;28;99374;-71
2022/01/21 04:35:15;;;;;;;1999.90;999.90;;;;;;;-5.97;56.60;102185.81;4980958;28;96869;-71
2022/01/21 04:37:49;;;;;;;1999.90;999.90;;;;;;;-5.94;56.57;102188.72;4977824;28;98459;-71
2022/01/21 04:40:19;;;;;;;1999.90;999.90;;;;;;;-5.98;57.07;102184.00;4978748;28;98385;-71
2022/01/21 04:48:26;;;;;;;1999.90;999.90;;;;;;;-6.03;58.12;102176.47;4963921;28;96825;-71
2022/01/21 04:50:57;;;;;;;1999.90;999.90;;;;;;;-6.08;57.97;102185.38;4955154;28;99191;-73
2022/01/21 04:53:27;;;;;;;1999.90;999.90;;;;;;;-6.08;58.12;102191.50;4959232;28;100702;-71
2022/01/21 04:56:10;;;;;;;1999.90;999.90;;;;;;;-6.04;58.11;102192.75;4975892;28;97350;-71
2022/01/21 04:58:38;;;;;;;1999.90;999.90;;;;;;;-6.11;58.81;102190.25;4961045;28;96816;-71
2022/01/21 05:01:06;;;;;;;1999.90;999.90;;;;;;;-6.11;58.96;102188.56;4958322;28;101092;-69
2022/01/21 05:03:39;;;;;;;1999.90;999.90;;;;;;;-6.15;59.26;102194.16;4960618;28;100386;-72
2022/01/21 05:06:08;;;;;;;1999.90;999.90;;;;;;;-6.14;59.27;102205.47;4977842;28;97366;-75
2022/01/21 05:08:43;;;;;;;1999.90;999.90;;;;;;;-6.15;59.53;102203.59;4959832;28;96953;-74
2022/01/21 05:11:13;;;;;;;1999.90;999.90;;;;;;;-6.14;59.51;102201.16;4955809;28;100524;-74
2022/01/21 05:13:44;;;;;;;1999.90;999.90;;;;;;;-6.13;60.08;102197.84;4971260;28;97978;-74
2022/01/21 05:16:29;;;;;;;1999.90;999.90;;;;;;;-6.13;59.79;102205.63;4971398;28;96919;-75
2022/01/21 05:19:04;;;;;;;1999.90;999.90;;;;;;;-6.08;59.46;102190.56;4973194;28;98293;-71
2022/01/21 05:21:50;;;;;;;1999.90;999.90;;;;;;;-6.01;59.39;102183.63;4985976;28;100488;-74
2022/01/21 05:24:24;;;;;;;1999.90;999.90;;;;;;;-5.98;59.33;102183.06;4951180;28;100947;-72
2022/01/21 05:26:54;;;;;;;1999.90;999.90;;;;;;;-5.99;59.10;102176.94;4958324;28;97348;-71
2022/01/21 05:29:29;;;;;;;1999.90;999.90;;;;;;;-5.96;59.02;102171.19;4960502;28;99605;-74
2022/01/21 05:32:06;;;;;;;1999.90;999.90;;;;;;;-5.93;58.91;102172.44;4989849;28;98718;-73
2022/01/21 05:34:39;;;;;;;1999.90;999.90;;;;;;;-5.92;59.96;102168.16;4956376;28;97783;-72
2022/01/21 05:37:18;;;;;;;1999.90;999.90;;;;;;;-5.87;59.63;102171.25;4970956;28;99173;-72
2022/01/21 05:40:04;;;;;;;1999.90;999.90;;;;;;;-5.81;59.10;102171.94;4964190;28;96983;-74
2022/01/21 05:42:55;;;;;;;1999.90;999.90;;;;;;;-5.79;59.03;102167.81;4968336;28;100867;-72
2022/01/21 05:48:51;;;;;;;1999.90;999.90;;;;;;;-5.73;59.22;102171.06;4978979;28;96857;-72
2022/01/21 05:51:39;;;;;;;1999.90;999.90;;;;;;;-5.74;59.29;102166.66;4973911;28;97811;-72
2022/01/21 05:54:18;;;;;;;1999.90;999.90;;;;;;;-5.73;59.32;102152.91;4951280;28;98236;-71
2022/01/21 05:57:11;;;;;;;1999.90;999.90;;;;;;;-5.77;60.38;102150.78;4973474;28;101142;-70
2022/01/21 05:59:42;;;;;;;1999.90;999.90;;;;;;;-5.78;59.65;102142.06;4960560;28;98470;-73
2022/01/21 06:02:12;;;;;;;1999.90;999.90;;;;;;;-5.75;59.77;102137.19;4962630;28;96951;-72
2022/01/21 06:04:42;;;;;;;1999.90;999.90;;;;;;;-5.73;59.66;102146.06;4975762;28;97692;-70
2022/01/21 06:07:12;;;;;;;1999.90;999.90;;;;;;;-5.75;60.25;102154.41;4953569;28;99793;-72
2022/01/21 06:09:39;;;;;;;1999.90;999.90;;;;;;;-5.80;60.25;102153.00;4964834;28;96947;-73
2022/01/21 06:12:09;;;;;;;1999.90;999.90;;;;;;;-5.77;59.98;102155.97;4981068;28;97992;-71
2022/01/21 06:14:38;;;;;;;1999.90;999.90;;;;;;;-5.74;60.11;102162.38;4981249;28;98745;-72
2022/01/21 06:17:11;;;;;;;1999.90;999.90;;;;;;;-5.72;59.79;102154.78;4978559;28;97328;-73
2022/01/21 06:19:39;;;;;;;1999.90;999.90;;;;;;;-5.73;59.96;102158.09;4981056;28;97060;-72
2022/01/21 06:22:07;;;;;;;1999.90;999.90;;;;;;;-5.75;61.21;102152.75;4979541;28;97596;-74
2022/01/21 06:24:36;;;;;;;1999.90;999.90;;;;;;;-5.73;60.62;102156.44;4962659;28;98500;-70
2022/01/21 06:27:04;;;;;;;1999.90;999.90;;;;;;;-5.71;60.69;102148.81;4981667;28;98872;-73
2022/01/21 06:29:32;;;;;;;1999.90;999.90;;;;;;;-5.67;60.07;102153.56;4983699;28;96732;-73
2022/01/21 06:32:00;;;;;;;1999.90;999.90;;;;;;;-5.69;60.97;102145.66;4957291;28;97113;-75
2022/01/21 06:34:27;;;;;;;1999.90;999.90;;;;;;;-5.63;60.53;102142.78;4981785;28;97784;-71
2022/01/21 06:36:55;;;;;;;1999.90;999.90;;;;;;;-5.57;59.50;102158.97;4977547;28;100091;-73
2022/01/21 06:39:23;;;;;;;1999.90;999.90;;;;;;;-5.57;60.02;102164.16;4978387;28;98284;-73
2022/01/21 06:41:52;;;;;;;1999.90;999.90;;;;;;;-5.57;60.25;102174.53;4975555;28;100157;-72
2022/01/21 06:44:20;;;;;;;1999.90;999.90;;;;;;;-5.53;59.67;102181.88;4980063;28;97973;-74
2022/01/21 06:46:48;;;;;;;1999.90;999.90;;;;;;;-5.49;59.93;102178.88;4980348;28;100737;-74
2022/01/21 06:49:16;;;;;;;1999.90;999.90;;;;;;;-5.46;60.05;102190.50;4980913;28;97117;-72
2022/01/21 06:51:44;;;;;;;1999.90;999.90;;;;;;;-5.40;59.81;102183.38;4964017;28;96915;-72
2022/01/21 06:54:13;;;;;;;1999.90;999.90;;;;;;;-5.34;59.32;102177.91;4963390;28;99037;-73
2022/01/21 06:56:40;;;;;;;1999.90;999.90;;;;;;;-5.29;59.66;102169.88;4980845;28;98873;-72
2022/01/21 06:59:10;;;;;;;1999.90;999.90;;;;;;;-5.26;59.65;102171.84;4981791;28;96808;-73
2022/01/21 07:01:37;;;;;;;1999.90;999.90;;;;;;;-5.21;59.17;102168.97;4980939;28;97058;-72
2022/01/21 07:04:05;;;;;;;1999.90;999.90;;;;;;;-5.20;59.87;102165.66;4985068;28;100915;-72
2022/01/21 07:06:33;;;;;;;1999.90;999.90;;;;;;;-5.17;59.57;102163.38;4981097;28;99076;-72
2022/01/21 07:09:01;;;;;;;1999.90;999.90;;;;;;;-5.10;59.32;102157.16;4981497;28;96895;-73
2022/01/21 07:11:28;;;;;;;1999.90;999.90;;;;;;;-5.06;59.48;102156.69;4980010;28;98745;-72
2022/01/21 07:13:56;;;;;;;1999.90;999.90;;;;;;;-5.02;59.41;102169.25;4981440;28;100675;-72
2022/01/21 07:16:25;;;;;;;1999.90;999.90;;;;;;;-5.02;60.10;102167.59;4981050;28;98369;-72
2022/01/21 07:18:53;;;;;;;1999.90;999.90;;;;;;;-4.98;60.08;102167.16;4974703;28;98733;-72
2022/01/21 07:21:20;;;;;;;1999.90;999.90;;;;;;;-4.91;59.77;102164.44;4982814;28;97441;-73
2022/01/21 07:23:48;;;;;;;1999.90;999.90;;;;;;;-4.84;59.41;102165.09;4963474;28;99547;-72
2022/01/21 07:26:16;;;;;;;1999.90;999.90;;;;;;;-4.78;59.21;102168.28;4980096;28;98794;-72
2022/01/21 07:28:44;;;;;;;1999.90;999.90;;;;;;;-4.76;59.16;102164.19;4981536;28;96911;-72
2022/01/21 07:31:11;;;;;;;1999.90;999.90;;;;;;;-4.70;59.00;102176.13;4980792;28;98713;-72
2022/01/21 07:33:41;;;;;;;1999.90;999.90;;;;;;;-4.75;59.61;102172.13;4963748;28;97599;-74
2022/01/21 07:36:08;;;;;;;1999.90;999.90;;;;;;;-4.73;59.61;102162.81;4980034;28;100483;-72
2022/01/21 07:38:38;;;;;;;1999.90;999.90;;;;;;;-4.72;59.93;102159.47;4981182;28;96916;-72
2022/01/21 07:41:06;;;;;;;1999.90;999.90;;;;;;;-4.66;59.49;102159.19;4996168;28;99592;-73
2022/01/21 07:43:39;;;;;;;1999.90;999.90;;;;;;;-4.64;59.69;102163.75;4981816;28;102015;-73
2022/01/21 07:46:07;;;;;;;1999.90;999.90;;;;;;;-4.65;60.15;102172.34;4982154;28;97516;-72
2022/01/21 07:48:35;;;;;;;1999.90;999.90;;;;;;;-4.60;59.50;102176.31;4981880;28;96866;-75
2022/01/21 07:51:04;;;;;;;1999.90;999.90;;;;;;;-4.61;60.38;102178.75;4980826;28;98566;-73
2022/01/21 07:53:32;;;;;;;1999.90;999.90;;;;;;;-4.57;60.04;102187.00;4981431;28;97714;-72
2022/01/21 07:55:59;;;;;;;1999.90;999.90;;;;;;;-4.56;60.03;102194.06;4979688;28;97561;-70
2022/01/21 07:58:27;;;;;;;1999.90;999.90;;;;;;;-4.59;60.66;102193.75;4979714;28;96846;-71
2022/01/21 08:00:55;;;;;;;1999.90;999.90;;;;;;;-4.56;59.69;102188.84;4980731;28;97065;-73
2022/01/21 08:03:27;;;;;;;1999.90;999.90;;;;;;;-4.60;60.52;102201.34;4980574;28;97619;-72
2022/01/21 08:05:55;;;;;;;1999.90;999.90;;;;;;;-4.56;60.10;102199.25;4981915;28;97816;-72
2022/01/21 08:08:26;;;;;;;1999.90;999.90;;;;;;;-4.60;60.88;102202.28;4979323;28;97701;-70
2022/01/21 08:10:54;;;;;;;1999.90;999.90;;;;;;;-4.58;60.77;102195.56;4978720;28;98149;-71
2022/01/21 08:13:22;;;;;;;1999.90;999.90;;;;;;;-4.56;60.55;102198.31;4980693;28;97800;-71
2022/01/21 08:15:49;;;;;;;1999.90;999.90;;;;;;;-4.55;60.65;102201.06;4978932;28;98798;-71
2022/01/21 08:18:17;;;;;;;1999.90;999.90;;;;;;;-4.51;59.95;102189.31;4971636;28;97186;-70
2022/01/21 08:20:45;;;;;;;1999.90;999.90;;;;;;;-4.53;60.13;102190.84;4975790;28;97913;-71
2022/01/21 08:23:13;;;;;;;1999.90;999.90;;;;;;;-4.54;60.17;102197.72;4977902;28;101315;-71
2022/01/21 08:25:43;;;;;;;1999.90;999.90;;;;;;;-4.49;59.96;102200.78;4977214;28;98689;-71
2022/01/21 08:28:11;;;;;;;1999.90;999.90;;;;;;;-4.54;60.96;102218.50;4977237;28;97324;-71
2022/01/21 08:30:39;;;;;;;1999.90;999.90;;;;;;;-4.51;60.57;102213.63;4976999;28;98876;-72
2022/01/21 08:33:07;;;;;;;1999.90;999.90;;;;;;;-4.43;59.98;102228.34;4974620;28;99220;-72
2022/01/21 08:35:35;;;;;;;1999.90;999.90;;;;;;;-4.51;61.04;102216.22;4976547;28;98716;-72
2022/01/21 08:38:03;;;;;;;1999.90;999.90;;;;;;;-4.48;60.59;102237.31;4982050;28;98564;-71
2022/01/21 08:40:32;;;;;;;1999.90;999.90;;;;;;;-4.43;60.14;102233.53;4981786;28;96892;-72
2022/01/21 08:43:01;;;;;;;1999.90;999.90;;;;;;;-4.41;60.30;102241.47;4977826;28;98659;-73
2022/01/21 08:45:29;;;;;;;1999.90;999.90;;;;;;;-4.39;60.98;102240.84;4974162;28;98681;-71
2022/01/21 08:47:57;;;;;;;1999.90;999.90;;;;;;;-4.37;60.73;102241.94;4959713;28;99620;-71
2022/01/21 08:50:27;;;;;;;1999.90;999.90;;;;;;;-4.33;60.30;102241.50;4976251;28;96943;-71
2022/01/21 08:53:06;;;;;;;1999.90;999.90;;;;;;;-4.34;60.92;102244.88;4978236;28;99342;-71
2022/01/21 08:55:35;;;;;;;1999.90;999.90;;;;;;;-4.29;60.28;102233.25;4979579;28;99214;-72
2022/01/21 08:58:04;;;;;;;1999.90;999.90;;;;;;;-4.20;59.91;102249.81;4982069;28;98856;-72
2022/01/21 09:00:31;;;;;;;1999.90;999.90;;;;;;;-4.13;60.02;102249.66;4980974;28;98693;-72
2022/01/21 09:02:59;;;;;;;1999.90;999.90;;;;;;;-4.09;59.53;102251.81;4980408;28;98179;-71
2022/01/21 09:05:27;;;;;;;1999.90;999.90;;;;;;;-4.06;59.87;102252.13;4981998;28;97707;-72
2022/01/21 09:07:55;;;;;;;1999.90;999.90;;;;;;;-4.05;60.00;102255.66;4963483;28;97957;-72
2022/01/21 09:10:22;;;;;;;1999.90;999.90;;;;;;;-4.03;59.44;102254.13;4982885;28;97062;-72
2022/01/21 09:12:50;;;;;;;1999.90;999.90;;;;;;;-4.04;59.98;102268.81;4977428;28;98021;-72
2022/01/21 09:15:24;;;;;;;1999.90;999.90;;;;;;;-4.02;59.82;102264.69;4978737;28;98767;-72
2022/01/21 09:18:02;;;;;;;1999.90;999.90;;;;;;;-3.98;59.21;102264.25;4981257;28;98510;-73
2022/01/21 09:20:29;;;;;;;1999.90;999.90;;;;;;;-3.94;59.60;102263.81;4988268;28;96935;-74
2022/01/21 09:22:57;;;;;;;1999.90;999.90;;;;;;;-3.95;59.38;102254.16;4989420;28;98734;-73
2022/01/21 09:25:25;;;;;;;1999.90;999.90;;;;;;;-3.97;59.49;102258.25;4986087;28;99342;-73
2022/01/21 09:27:53;;;;;;;1999.90;999.90;;;;;;;-3.95;59.49;102259.34;4986575;28;97111;-71
2022/01/21 09:30:22;;;;;;;1999.90;999.90;;;;;;;-3.92;59.46;102254.47;4984057;28;96909;-69
2022/01/21 09:32:50;;;;;;;1999.90;999.90;;;;;;;-3.88;59.12;102241.00;4984657;28;96787;-73
2022/01/21 09:35:17;;;;;;;1999.90;999.90;;;;;;;-3.88;59.23;102251.41;4986792;28;98459;-71
2022/01/21 09:37:45;;;;;;;1999.90;999.90;;;;;;;-3.80;58.76;102230.47;4986263;28;97197;-72
2022/01/21 09:40:33;;;;;;;1999.90;999.90;;;;;;;-3.88;58.95;102235.78;4984504;28;97736;-69
2022/01/21 09:43:02;;;;;;;1999.90;999.90;;;;;;;-3.85;59.01;102243.00;4983424;28;98635;-72
2022/01/21 09:45:31;;;;;;;1999.90;999.90;;;;;;;-3.84;59.08;102247.44;4982700;28;101089;-72
2022/01/21 09:48:04;;;;;;;1999.90;999.90;;;;;;;-3.78;58.72;102247.13;4983650;28;96802;-72
2022/01/21 09:50:33;;;;;;;1999.90;999.90;;;;;;;-3.77;58.93;102244.72;4985009;28;97303;-72
2022/01/21 09:53:02;;;;;;;1999.90;999.90;;;;;;;-3.76;58.41;102256.00;4981697;28;100539;-72
2022/01/21 09:55:29;;;;;;;1999.90;999.90;;;;;;;-3.78;58.49;102263.66;4981106;28;97741;-72
2022/01/21 09:57:58;;;;;;;1999.90;999.90;;;;;;;-3.79;58.72;102266.13;4986077;28;97167;-72
2022/01/21 10:00:27;;;;;;;1999.90;999.90;;;;;;;-3.73;58.51;102256.34;4984025;28;99163;-72
2022/01/21 10:02:58;;;;;;;1999.90;999.90;;;;;;;-3.81;57.92;102255.56;4983801;28;99766;-72
2022/01/21 10:05:26;;;;;;;1999.90;999.90;;;;;;;-3.71;58.23;102253.13;4975474;28;98709;-72
2022/01/21 10:07:54;;;;;;;1999.90;999.90;;;;;;;-3.69;57.93;102253.25;4981437;28;97129;-72
2022/01/21 10:10:22;;;;;;;1999.90;999.90;;;;;;;-3.66;58.32;102272.72;4982931;28;97199;-71
2022/01/21 10:12:50;;;;;;;1999.90;999.90;;;;;;;-3.63;57.96;102278.22;4981021;28;98830;-72
2022/01/21 10:15:18;;;;;;;1999.90;999.90;;;;;;;-3.66;57.53;102277.94;4980967;28;99148;-72
2022/01/21 10:18:05;;;;;;;1999.90;999.90;;;;;;;-3.70;56.43;102273.16;4998122;28;96798;-72
2022/01/21 10:20:57;;;;;;;1999.90;999.90;;;;;;;-3.71;55.83;102280.81;4980562;28;98855;-73
2022/01/21 10:23:25;;;;;;;1999.90;999.90;;;;;;;-3.59;57.30;102274.25;4979798;28;98975;-72
2022/01/21 10:25:59;;;;;;;1999.90;999.90;;;;;;;-3.59;57.29;102274.25;4965926;28;99287;-71
2022/01/21 10:28:27;;;;;;;1999.90;999.90;;;;;;;-3.56;57.06;102278.06;4983452;28;98211;-72
2022/01/21 10:31:06;;;;;;;1999.90;999.90;;;;;;;-3.58;57.11;102283.88;4983934;28;97221;-70
2022/01/21 10:33:42;;;;;;;1999.90;999.90;;;;;;;-3.51;57.34;102286.38;4980867;28;99054;-72
2022/01/21 10:36:15;;;;;;;1999.90;999.90;;;;;;;-3.48;57.24;102294.47;4982951;28;97488;-71
2022/01/21 10:38:45;;;;;;;1999.90;999.90;;;;;;;-3.43;56.82;102295.84;4979794;28;99795;-70
2022/01/21 10:41:14;;;;;;;1999.90;999.90;;;;;;;-3.40;57.35;102298.78;4978635;28;96819;-71
2022/01/21 10:43:42;;;;;;;1999.90;999.90;;;;;;;-3.40;56.22;102301.38;4980786;28;98737;-72
2022/01/21 10:46:15;;;;;;;1999.90;999.90;;;;;;;-3.45;54.53;102302.56;4981864;28;98820;-74
2022/01/21 10:49:08;;;;;;;1999.90;999.90;;;;;;;-3.38;55.72;102303.34;4979592;28;99642;-74
2022/01/21 10:51:37;;;;;;;1999.90;999.90;;;;;;;-3.32;56.63;102305.66;4961920;28;96810;-71
2022/01/21 10:54:14;;;;;;;1999.90;999.90;;;;;;;-3.32;56.58;102310.84;4982006;28;99048;-71
2022/01/21 10:56:42;;;;;;;1999.90;999.90;;;;;;;-3.35;55.29;102305.34;4982223;28;97769;-72
2022/01/21 10:59:10;;;;;;;1999.90;999.90;;;;;;;-3.29;56.12;102305.94;4985589;28;97158;-73
2022/01/21 11:01:37;;;;;;;1999.90;999.90;;;;;;;-3.29;55.49;102305.94;4982867;28;96970;-73
2022/01/21 11:04:10;;;;;;;1999.90;999.90;;;;;;;-3.32;55.14;102296.16;4984296;28;98995;-72
2022/01/21 11:06:49;;;;;;;1999.90;999.90;;;;;;;-3.33;54.47;102293.41;4982746;28;97574;-74
2022/01/21 11:09:19;;;;;;;1999.90;999.90;;;;;;;-3.38;53.83;102298.13;4984026;28;97126;-72
2022/01/21 11:11:48;;;;;;;1999.90;999.90;;;;;;;-3.29;55.91;102298.13;4983503;28;98577;-71
2022/01/21 11:14:18;;;;;;;1999.90;999.90;;;;;;;-3.34;54.43;102299.38;4980012;28;99049;-71
2022/01/21 11:16:47;;;;;;;1999.90;999.90;;;;;;;-3.29;54.64;102309.47;4977692;28;99847;-73
2022/01/21 11:19:36;;;;;;;1999.90;999.90;;;;;;;-3.24;54.73;102316.03;4980255;28;98061;-71
2022/01/21 11:22:05;;;;;;;1999.90;999.90;;;;;;;-3.20;54.74;102306.91;4976316;28;97276;-73
2022/01/21 11:24:34;;;;;;;1999.90;999.90;;;;;;;-3.17;55.07;102300.31;4983276;28;97753;-72
2022/01/21 11:27:10;;;;;;;1999.90;999.90;;;;;;;-3.19;53.03;102304.44;4982574;28;99912;-73
2022/01/21 11:29:38;;;;;;;1999.90;999.90;;;;;;;-3.09;55.01;102314.97;4982277;28;96871;-73
2022/01/21 11:32:07;;;;;;;1999.90;999.90;;;;;;;-3.08;54.65;102308.09;4981993;28;98792;-70
2022/01/21 11:34:37;;;;;;;1999.90;999.90;;;;;;;-3.07;54.17;102305.66;4982637;28;97211;-71
2022/01/21 11:37:06;;;;;;;1999.90;999.90;;;;;;;-3.01;53.68;102302.72;4960189;28;99928;-72